METAR Data
IDs: Format: Raw Decoded Include TAF

Data at: 2216 UTC 24 Mar 2019

KINJ 242155Z AUTO 17014KT 10SM CLR 26/18 A2998 RMK AO2 T02550179
KINJ 242135Z AUTO 17015G19KT 10SM SCT034 26/18 A2999 RMK AO2 T02570180
KINJ 242115Z AUTO 17010G21KT 10SM SCT034 26/18 A2999 RMK AO2 T02550181
KINJ 242055Z AUTO 17012KT 10SM SCT034 SCT040 26/18 A2999 RMK AO2 T02570182
KINJ 242035Z AUTO 19015G18KT 10SM BKN035 25/18 A3000 RMK AO2 T02510183
KINJ 242015Z AUTO 18012G20KT 10SM BKN033 25/18 A3000 RMK AO2 T02500182
KINJ 241955Z AUTO 17013KT 10SM BKN031 25/18 A3001 RMK AO2 T02500182
KINJ 241935Z AUTO 17012G17KT 10SM BKN031 25/18 A3001 RMK AO2 T02470180
KINJ 241915Z AUTO 18012G15KT 10SM BKN033 25/18 A3002 RMK AO2 T02460178
KINJ 241855Z AUTO 17010G16KT 10SM BKN033 25/18 A3003 RMK AO2 T02480181
KINJ 241835Z AUTO 19014KT 10SM SCT029 OVC035 25/18 A3004 RMK AO2 T02470183
KINJ 241815Z AUTO 19014KT 10SM OVC030 24/18 A3004 RMK AO2 T02400183
KINJ 241755Z AUTO 17012KT 10SM OVC030 24/18 A3005 RMK AO2 T02360182 10241 20170
KINJ 241735Z AUTO 20014G17KT 10SM OVC026 23/18 A3006 RMK AO2 T02310183
KINJ 241715Z AUTO 19014G17KT 10SM OVC024 23/19 A3006 RMK AO2 T02270185
KINJ 241655Z AUTO 19014KT 10SM OVC024 22/19 A3007 RMK AO2 T02240188
KINJ 241635Z AUTO 19013G19KT 10SM OVC022 22/18 A3007 RMK AO2 T02190184
KINJ 241615Z AUTO 19016KT 10SM BKN019 BKN024 22/19 A3007 RMK AO2 T02160185
KINJ 241555Z AUTO 18014KT 10SM BKN016 BKN022 22/19 A3007 RMK AO2 T02150189
KINJ 241535Z AUTO 19013KT 10SM SCT016 21/19 A3008 RMK AO2 T02110190
KINJ 241515Z AUTO 18013KT 10SM SCT011 SCT017 SCT027 21/19 A3007 RMK AO2 T02070189
KINJ 241455Z AUTO 18012KT 10SM SCT011 OVC029 20/19 A3008 RMK AO2 T01980191
KINJ 241435Z AUTO 18012KT 10SM BKN009 OVC029 19/19 A3007 RMK AO2 T01930189
KINJ 241415Z AUTO 17010KT 10SM BKN007 OVC029 19/19 A3007 RMK AO2 T01870187
KINJ 241355Z AUTO 17010KT 10SM BKN007 OVC029 18/18 A3007 RMK AO2 T01810181
KINJ 241335Z AUTO 17010KT 10SM BKN009 OVC029 18/18 A3006 RMK AO2 T01790179
KINJ 241315Z AUTO 17009KT 10SM OVC009 18/18 A3005 RMK AO2 T01760176
KINJ 241255Z AUTO 17008KT 10SM OVC007 17/17 A3005 RMK AO2 T01700170
KINJ 241235Z AUTO 17008KT 10SM OVC009 17/17 A3004 RMK AO2 T01700170
KINJ 241215Z AUTO 16009KT 10SM OVC009 17/17 A3004 RMK AO2 T01740174
KINJ 241155Z AUTO 16008KT 10SM OVC011 18/18 A3004 RMK AO2 T01750175 10185 20172
KINJ 241135Z AUTO 17009KT 10SM BKN013 BKN017 OVC029 17/17 A3003 RMK AO2 T01740174
KINJ 241115Z AUTO 17009KT 10SM SCT011 SCT015 OVC029 18/18 A3003 RMK AO2 T01750175
KINJ 241055Z AUTO 16010KT 10SM BKN029 18/18 A3002 RMK AO2 T01750175
KINJ 241035Z AUTO 16012KT 10SM SCT018 SCT025 17/17 A3002 RMK AO2 T01740174
KINJ 241015Z AUTO 16014KT 10SM OVC016 18/18 A3002 RMK AO2 T01770177
KINJ 240955Z AUTO 17011G17KT 10SM OVC014 18/18 A3002 RMK AO2 T01780177
KINJ 240935Z AUTO 17010KT 10SM OVC016 18/18 A3002 RMK AO2 T01770176
KINJ 240915Z AUTO 17010KT 10SM OVC016 18/18 A3002 RMK AO2 T01770176
KINJ 240855Z AUTO 17010KT 10SM SCT018 BKN035 17/17 A3003 RMK AO2 T01720172
KINJ 240835Z AUTO 17011KT 10SM SCT018 OVC035 18/17 A3003 RMK AO2 T01770173
KINJ 240815Z AUTO 17010KT 10SM OVC018 18/17 A3004 RMK AO2 T01820174
KINJ 240755Z AUTO 17011KT 10SM BKN018 OVC036 18/17 A3005 RMK AO2 T01830173
KINJ 240735Z AUTO 16011KT 10SM SCT018 OVC034 18/17 A3005 RMK AO2 T01840172
KINJ 240715Z AUTO 16011KT 10SM SCT018 OVC034 19/17 A3005 RMK AO2 T01850171
KINJ 240655Z AUTO 17010KT 10SM BKN018 OVC034 18/17 A3004 RMK AO2 T01830170
KINJ 240635Z AUTO 17011G16KT 10SM OVC032 18/17 A3004 RMK AO2 T01830169
KINJ 240615Z AUTO 16014G18KT 10SM OVC028 18/17 A3004 RMK AO2 T01820167
KINJ 240555Z AUTO 16012KT 10SM SCT026 18/17 A3004 RMK AO2 T01800166 10211 20180 402210146
KINJ 240535Z AUTO 16013KT 10SM BKN037 18/17 A3004 RMK AO2 T01810165
KINJ 240515Z AUTO 15012G19KT 10SM OVC037 19/17 A3004 RMK AO2 T01860165
KINJ 240455Z AUTO 15014G17KT 10SM OVC037 19/16 A3003 RMK AO2 T01900163
KINJ 240435Z AUTO 15013G18KT 10SM OVC037 19/16 A3003 RMK AO2 T01920163
KINJ 240415Z AUTO 15015KT 10SM OVC035 19/16 A3003 RMK AO2 T01930163
KINJ 240355Z AUTO 15015KT 10SM OVC035 19/16 A3002 RMK AO2 T01930163
KINJ 240335Z AUTO 15015KT 10SM SCT037 SCT075 19/16 A3002 RMK AO2 T01900162
KINJ 240315Z AUTO 16013G20KT 10SM CLR 19/16 A3002 RMK AO2 T01920162
KINJ 240255Z AUTO 15011KT 10SM SCT070 19/17 A3001 RMK AO2 T01910165
KINJ 240235Z AUTO 15010KT 10SM SCT042 BKN070 19/17 A3001 RMK AO2 T01920165
KINJ 240215Z AUTO 14010KT 10SM BKN042 20/17 A3000 RMK AO2 T01950166
KINJ 240155Z AUTO 15010KT 10SM CLR 20/17 A3001 RMK AO2 T01950166
KINJ 240135Z AUTO 15011KT 10SM SCT040 20/17 A3001 RMK AO2 T01990165
KINJ 240115Z AUTO 16011KT 10SM SCT032 BKN040 20/17 A3001 RMK AO2 T02000166
KINJ 240055Z AUTO 15015G19KT 10SM OVC034 20/17 A3001 RMK AO2 T02040166
KINJ 240035Z AUTO 16013G18KT 10SM -RA OVC034 20/17 A3001 RMK AO2 T02020172
KINJ 240015Z AUTO 16013KT 10SM OVC034 21/16 A3001 RMK AO2 LTG DSNT NE T02100164
KINJ 232355Z AUTO 16014KT 10SM BKN030 OVC034 21/16 A3001 RMK AO2 T02100163 10221 20195
KINJ 232335Z AUTO 16012KT 10SM OVC032 21/17 A3001 RMK AO2 T02110165
KINJ 232315Z AUTO 16014KT 10SM BKN034 OVC039 22/16 A3000 RMK AO2 T02150160
KINJ 232255Z AUTO 16017G22KT 10SM SCT032 OVC039 22/16 A2999 RMK AO2 T02160160
KINJ 232235Z AUTO 16016G23KT 10SM BKN033 BKN039 OVC046 22/16 A2999 RMK AO2 T02180160
KINJ 232215Z AUTO 17018G25KT 10SM OVC035 22/16 A2999 RMK AO2 LTG DSNT N T02190159
KINJ 232155Z AUTO 17016G22KT 10SM BKN037 OVC044 22/16 A2999 RMK AO2 T02190160
KINJ 232135Z AUTO 17016G21KT 10SM SCT030 BKN037 OVC043 22/17 A3000 RMK AO2 T02200165
KINJ 232115Z AUTO 17014G20KT 10SM SCT028 OVC036 22/17 A3000 RMK AO2 T02160165
KINJ 232055Z AUTO 17015KT 10SM BKN028 OVC035 21/17 A3001 RMK AO2 LTG DSNT NE T02130165
KINJ 232035Z AUTO 16016G19KT 10SM OVC026 21/17 A3001 RMK AO2 LTG DSNT N T02130167
KINJ 232015Z AUTO 16014G21KT 10SM BKN026 OVC031 21/17 A3002 RMK AO2 T02140167
KINJ 231955Z AUTO 16012G17KT 10SM BKN024 OVC030 21/17 A3003 RMK AO2 T02120166
KINJ 231935Z AUTO 17015KT 10SM SCT020 OVC026 21/17 A3004 RMK AO2 T02120168
KINJ 231915Z AUTO 16014KT 10SM BKN020 OVC027 21/17 A3004 RMK AO2 T02090166
KINJ 231855Z AUTO 16015G20KT 10SM BKN020 OVC027 21/17 A3005 RMK AO2 T02110167
KINJ 231835Z AUTO 15016G21KT 10SM BKN020 OVC025 20/16 A3007 RMK AO2 T01970163
KINJ 231815Z AUTO 16015KT 10SM BKN020 OVC027 20/16 A3008 RMK AO2 T01960162
KINJ 231755Z AUTO 16014KT 10SM OVC018 20/16 A3008 RMK AO2 T01960163 10199 20146
KINJ 231735Z AUTO 16012KT 10SM OVC020 19/16 A3009 RMK AO2 T01910161
KINJ 231715Z AUTO 16016KT 10SM BKN020 OVC025 19/16 A3009 RMK AO2 T01910161
KINJ 231655Z AUTO 16015KT 10SM BKN017 OVC049 19/16 A3010 RMK AO2 T01900160
KINJ 231635Z AUTO 15016KT 10SM BKN019 OVC049 19/16 A3010 RMK AO2 LTG DSNT N T01870157
KINJ 231615Z AUTO 15014KT 10SM OVC021 18/16 A3010 RMK AO2 LTG DSNT N T01840156
KINJ 231555Z AUTO 15015G18KT 10SM OVC021 18/16 A3009 RMK AO2 LTG DSNT N T01790155
KINJ 231535Z AUTO 16016KT 10SM BKN021 BKN055 OVC080 18/15 A3010 RMK AO2 T01750153
KINJ 231515Z AUTO 15015KT 10SM SCT055 BKN070 OVC080 17/15 A3009 RMK AO2 LTG DSNT N T01700152
KINJ 231455Z AUTO 15013KT 10SM SCT023 OVC055 17/15 A3009 RMK AO2 LTG DSNT N T01650150
KINJ 231435Z AUTO 15013KT 10SM BKN023 OVC060 16/15 A3010 RMK AO2 LTG DSNT N AND E T01630148
KINJ 231415Z AUTO 15010KT 10SM BKN060 OVC080 16/15 A3009 RMK AO2 LTG DSNT N AND E T01630150
KINJ 231355Z AUTO 14013KT 10SM VCTS SCT021 OVC060 16/15 A3008 RMK AO2 LTG DSNT N AND E T01570145
KINJ 231335Z AUTO 16010KT 10SM BKN021 BKN028 OVC060 15/14 A3009 RMK AO2 T01520142
KINJ 231315Z AUTO 17008KT 10SM SCT025 BKN048 OVC050 15/14 A3009 RMK AO2 LTG DSNT E AND SE T01500138
KINJ 231255Z AUTO 16006KT 10SM SCT026 BKN046 OVC050 15/14 A3008 RMK AO2 LTG DSNT SE T01460136
KINJ 231235Z AUTO 17006KT 10SM BKN048 OVC070 15/13 A3007 RMK AO2 T01500127
KINJ 231215Z AUTO 15007KT 10SM -RA OVC048 15/12 A3007 RMK AO2 LTG DSNT S T01500123
KINJ 231155Z AUTO 15006KT 10SM VCTS OVC048 15/12 A3005 RMK AO2 LTG DSNT SE T01500120 10180 20148
KINJ 231135Z AUTO 16004KT 10SM BKN047 BKN065 BKN120 15/12 A3005 RMK AO2 LTG DSNT S T01500120
KINJ 231115Z AUTO 20004KT 10SM -VCTSRA SCT050 SCT070 SCT110 15/12 A3004 RMK AO2 LTG DSNT S T01500115
KINJ 231055Z AUTO 16006KT 10SM RA BKN110 16/11 A3003 RMK AO2 T01550108
KINJ 231035Z AUTO 15007KT 10SM SCT065 SCT120 15/11 A3003 RMK AO2 T01510107